createdAt,value
2023-07-08T00:00:07.198Z,15.98
2023-07-08T00:01:07.189Z,16.09
2023-07-08T00:02:07.259Z,16.00
2023-07-08T00:03:07.211Z,15.94
2023-07-08T00:04:07.222Z,15.95
2023-07-08T00:05:07.147Z,15.90
2023-07-08T00:06:07.144Z,15.82
2023-07-08T00:07:07.138Z,15.84
2023-07-08T00:08:07.123Z,15.95
2023-07-08T00:09:07.160Z,15.83
2023-07-08T00:10:08.116Z,15.94
2023-07-08T00:11:07.104Z,15.79
2023-07-08T00:12:07.107Z,15.77
2023-07-08T00:13:07.083Z,15.70
2023-07-08T00:14:07.172Z,15.68
2023-07-08T00:15:07.076Z,15.79
2023-07-08T00:16:07.127Z,15.73
2023-07-08T00:17:07.070Z,15.70
2023-07-08T00:18:07.095Z,15.72
2023-07-08T00:19:57.204Z,15.68
2023-07-08T00:20:57.219Z,15.64
2023-07-08T00:21:57.202Z,15.54
2023-07-08T00:22:57.185Z,15.55
2023-07-08T00:23:58.286Z,15.51
2023-07-08T00:24:58.271Z,15.61
2023-07-08T00:25:58.284Z,15.61
2023-07-08T00:26:58.253Z,15.51
2023-07-08T00:27:58.248Z,15.54
2023-07-08T00:28:58.229Z,15.57
2023-07-08T00:29:58.236Z,15.68
2023-07-08T00:30:58.498Z,15.72
2023-07-08T00:31:58.229Z,15.57
2023-07-08T00:32:58.289Z,15.57
2023-07-08T00:33:58.651Z,15.61
2023-07-08T00:34:58.194Z,15.55
2023-07-08T00:35:58.186Z,15.54
2023-07-08T00:36:58.181Z,15.54
2023-07-08T00:37:58.169Z,15.51
2023-07-08T00:38:58.189Z,15.49
2023-07-08T00:39:58.184Z,15.44
2023-07-08T00:40:58.274Z,15.52
2023-07-08T00:41:58.193Z,15.51
2023-07-08T00:42:58.127Z,15.52
2023-07-08T00:43:58.231Z,15.47
2023-07-08T00:44:58.462Z,15.37
2023-07-08T00:46:03.058Z,15.44
2023-07-08T00:47:11.033Z,15.49
2023-07-08T00:47:58.176Z,15.43
2023-07-08T00:48:58.078Z,15.42
2023-07-08T00:49:58.090Z,15.46
2023-07-08T00:50:58.280Z,15.40
2023-07-08T00:51:58.049Z,15.39
2023-07-08T00:52:58.121Z,15.36
2023-07-08T00:53:58.038Z,15.31
2023-07-08T00:54:59.026Z,15.33
2023-07-08T00:55:58.026Z,15.24
2023-07-08T00:56:58.011Z,15.28
2023-07-08T00:57:58.005Z,15.18
2023-07-08T00:58:58.038Z,15.18
2023-07-08T00:59:58.004Z,15.21
2023-07-08T01:00:58.214Z,15.22
2023-07-08T01:01:58.012Z,15.10
2023-07-08T01:02:58.052Z,15.18
2023-07-08T01:03:58.012Z,15.17
2023-07-08T01:04:57.959Z,15.07
2023-07-08T01:05:57.928Z,15.15
2023-07-08T01:06:57.937Z,15.09
2023-07-08T01:07:57.939Z,15.02
2023-07-08T01:08:57.919Z,15.03
2023-07-08T01:09:57.919Z,15.07
2023-07-08T01:11:00.082Z,14.91
2023-07-08T01:11:57.903Z,14.99
2023-07-08T01:12:57.869Z,14.91
2023-07-08T01:13:57.896Z,14.88
2023-07-08T01:14:57.876Z,14.85
2023-07-08T01:15:57.888Z,14.96
2023-07-08T01:16:58.618Z,14.94
2023-07-08T01:17:57.915Z,14.88
2023-07-08T01:18:57.856Z,14.91
2023-07-08T01:19:57.832Z,14.82
2023-07-08T01:20:57.918Z,14.86
2023-07-08T01:21:57.871Z,14.78
2023-07-08T01:22:57.802Z,14.79
2023-07-08T01:23:57.816Z,14.77
2023-07-08T01:24:57.808Z,14.69
2023-07-08T01:25:57.788Z,14.68
2023-07-08T01:26:57.803Z,14.66
2023-07-08T01:27:57.773Z,14.69
2023-07-08T01:28:57.757Z,14.63
2023-07-08T01:29:57.764Z,14.58
2023-07-08T01:30:57.867Z,14.62
2023-07-08T01:31:57.777Z,14.70
2023-07-08T01:32:57.768Z,14.63
2023-07-08T01:33:57.719Z,14.59
2023-07-08T01:34:57.704Z,14.50
2023-07-08T01:35:57.726Z,14.51
2023-07-08T01:36:57.689Z,14.55
2023-07-08T01:37:57.687Z,14.50
2023-07-08T01:38:57.680Z,14.53
2023-07-08T01:39:57.672Z,14.53
2023-07-08T01:40:57.827Z,14.55
2023-07-08T01:41:57.657Z,14.50
2023-07-08T01:42:57.649Z,14.45
2023-07-08T01:43:57.650Z,14.51
2023-07-08T01:44:57.628Z,14.51
2023-07-08T01:45:57.634Z,14.45
2023-07-08T01:46:57.608Z,14.41
2023-07-08T01:47:57.670Z,14.48
2023-07-08T01:48:57.601Z,14.53
2023-07-08T01:49:57.586Z,14.40
2023-07-08T01:50:59.711Z,14.45
2023-07-08T01:51:57.578Z,14.43
2023-07-08T01:52:57.566Z,14.44
2023-07-08T01:53:57.550Z,14.44
2023-07-08T01:54:57.556Z,14.47
2023-07-08T01:55:57.545Z,14.41
2023-07-08T01:56:57.572Z,14.29
2023-07-08T01:57:57.506Z,14.18
2023-07-08T01:58:57.516Z,14.28
2023-07-08T01:59:57.502Z,14.17
2023-07-08T02:00:57.731Z,14.22
2023-07-08T02:01:57.764Z,14.12
2023-07-08T02:02:57.585Z,14.14
2023-07-08T02:03:57.478Z,14.15
2023-07-08T02:04:57.472Z,14.11
2023-07-08T02:05:57.567Z,14.20
2023-07-08T02:06:57.469Z,14.17
2023-07-08T02:07:57.455Z,14.20
2023-07-08T02:08:57.445Z,14.12
2023-07-08T02:09:57.428Z,14.00
2023-07-08T02:10:57.777Z,14.15
2023-07-08T02:11:57.421Z,14.08
2023-07-08T02:12:57.399Z,14.07
2023-07-08T02:13:57.428Z,14.11
2023-07-08T02:14:57.415Z,14.07
2023-07-08T02:15:57.387Z,14.03
2023-07-08T02:16:57.371Z,14.04
2023-07-08T02:17:57.399Z,14.03
2023-07-08T02:18:57.342Z,14.12
2023-07-08T02:19:57.353Z,14.08
2023-07-08T02:20:57.542Z,14.12
2023-07-08T02:21:57.326Z,14.05
2023-07-08T02:22:57.325Z,14.12
2023-07-08T02:23:57.329Z,14.14
2023-07-08T02:24:57.302Z,14.14
2023-07-08T02:25:57.334Z,13.95
2023-07-08T02:26:57.331Z,13.99
2023-07-08T02:27:57.278Z,14.07
2023-07-08T02:28:57.268Z,13.97
2023-07-08T02:29:57.260Z,14.04
2023-07-08T02:30:57.328Z,13.87
2023-07-08T02:31:57.280Z,13.89
2023-07-08T02:32:57.296Z,13.89
2023-07-08T02:33:57.256Z,13.89
2023-07-08T02:34:57.223Z,13.71
2023-07-08T02:35:58.224Z,13.74
2023-07-08T02:36:57.223Z,13.67
2023-07-08T02:37:57.216Z,13.74
2023-07-08T02:38:57.205Z,13.65
2023-07-08T02:39:57.189Z,13.72
2023-07-08T02:40:57.353Z,13.67
2023-07-08T02:41:57.166Z,13.74
2023-07-08T02:42:57.257Z,13.67
2023-07-08T02:43:57.137Z,13.60
2023-07-08T02:44:57.143Z,13.68
2023-07-08T02:45:57.150Z,13.62
2023-07-08T02:46:58.097Z,13.52
2023-07-08T02:47:57.166Z,13.59
2023-07-08T02:48:57.143Z,13.57
2023-07-08T02:49:57.110Z,13.56
2023-07-08T02:50:57.405Z,13.57
2023-07-08T02:51:57.705Z,13.57
2023-07-08T02:52:57.081Z,13.68
2023-07-08T02:53:57.074Z,13.56
2023-07-08T02:54:57.070Z,13.54
2023-07-08T02:55:57.057Z,13.57
2023-07-08T02:56:57.064Z,13.57
2023-07-08T02:57:57.036Z,13.54
2023-07-08T02:58:57.043Z,13.52
2023-07-08T02:59:57.040Z,13.54
2023-07-08T03:00:57.102Z,13.47
2023-07-08T03:01:57.021Z,13.38
2023-07-08T03:02:57.094Z,13.42
2023-07-08T03:03:57.114Z,13.39
2023-07-08T03:04:56.992Z,13.44
2023-07-08T03:05:56.982Z,13.38
2023-07-08T03:06:56.964Z,13.49
2023-07-08T03:07:56.979Z,13.44
2023-07-08T03:08:56.969Z,13.52
2023-07-08T03:09:56.971Z,13.39
2023-07-08T03:10:57.053Z,13.49
2023-07-08T03:11:56.927Z,13.38
2023-07-08T03:12:56.928Z,13.33
2023-07-08T03:13:57.026Z,13.31
2023-07-08T03:14:56.913Z,13.49
2023-07-08T03:15:56.912Z,13.41
2023-07-08T03:16:56.950Z,13.46
2023-07-08T03:17:56.904Z,13.52
2023-07-08T03:18:56.886Z,13.54
2023-07-08T03:19:56.896Z,13.53
2023-07-08T03:20:57.030Z,13.53
2023-07-08T03:21:56.866Z,13.63
2023-07-08T03:22:56.861Z,13.62
2023-07-08T03:23:56.851Z,13.67
2023-07-08T03:24:56.831Z,13.63
2023-07-08T03:25:56.852Z,13.67
2023-07-08T03:26:56.816Z,13.71
2023-07-08T03:27:56.798Z,13.71
2023-07-08T03:28:56.799Z,13.89
2023-07-08T03:29:56.796Z,13.83
2023-07-08T03:30:56.814Z,13.86
2023-07-08T03:31:56.764Z,13.95
2023-07-08T03:32:56.812Z,13.97
2023-07-08T03:33:56.759Z,14.00
2023-07-08T03:34:56.753Z,14.04
2023-07-08T03:35:56.745Z,13.97
2023-07-08T03:36:56.744Z,14.04
2023-07-08T03:37:56.726Z,14.04
2023-07-08T03:38:56.771Z,14.11
2023-07-08T03:39:56.725Z,14.14
2023-07-08T03:40:56.781Z,14.12
2023-07-08T03:41:56.701Z,14.08
2023-07-08T03:42:56.683Z,14.20
2023-07-08T03:43:56.688Z,14.25
2023-07-08T03:44:56.683Z,14.44
2023-07-08T03:45:56.683Z,14.66
2023-07-08T03:46:56.727Z,14.92
2023-07-08T03:47:56.743Z,15.03
2023-07-08T03:48:56.675Z,15.40
2023-07-08T03:49:56.659Z,15.49
2023-07-08T03:50:56.640Z,15.73
2023-07-08T03:51:56.622Z,15.79
2023-07-08T03:52:56.652Z,16.12
2023-07-08T03:53:56.620Z,16.33
2023-07-08T03:54:56.595Z,16.47
2023-07-08T03:55:56.604Z,16.61
2023-07-08T03:56:56.610Z,16.75
2023-07-08T03:57:56.601Z,16.94
2023-07-08T03:58:56.601Z,17.05
2023-07-08T03:59:56.560Z,17.34
2023-07-08T04:00:56.582Z,17.51
2023-07-08T04:01:56.621Z,17.76
2023-07-08T04:02:56.587Z,17.87
2023-07-08T04:03:56.600Z,18.01
2023-07-08T04:04:56.519Z,18.18
2023-07-08T04:05:56.520Z,18.13
2023-07-08T04:06:56.522Z,18.01
2023-07-08T04:07:56.514Z,18.25
2023-07-08T04:08:56.488Z,18.35
2023-07-08T04:09:56.491Z,18.58
2023-07-08T04:10:56.466Z,18.98
2023-07-08T04:11:56.460Z,19.36
2023-07-08T04:12:56.469Z,19.63
2023-07-08T04:13:56.524Z,19.77
2023-07-08T04:14:56.458Z,19.73
2023-07-08T04:15:56.440Z,19.81
2023-07-08T04:16:56.538Z,20.00
2023-07-08T04:17:56.432Z,20.22
2023-07-08T04:18:56.411Z,20.39
2023-07-08T04:19:56.405Z,20.47
2023-07-08T04:21:57.389Z,20.52
2023-07-08T04:22:56.427Z,20.77
2023-07-08T04:23:56.377Z,20.69
2023-07-08T04:24:56.383Z,20.67
2023-07-08T04:25:56.367Z,20.63
2023-07-08T04:26:56.348Z,20.50
2023-07-08T04:27:56.360Z,20.75
2023-07-08T04:28:56.406Z,21.17
2023-07-08T04:29:56.351Z,21.30
2023-07-08T04:30:56.370Z,21.60
2023-07-08T04:31:56.320Z,21.92
2023-07-08T04:32:56.363Z,22.15
2023-07-08T04:33:56.304Z,22.14
2023-07-08T04:34:56.298Z,21.99
2023-07-08T04:35:56.302Z,21.72
2023-07-08T04:36:56.310Z,21.60
2023-07-08T04:37:56.261Z,21.75
2023-07-08T04:38:56.282Z,21.89
2023-07-08T04:39:56.284Z,22.23
2023-07-08T04:40:56.253Z,22.53
2023-07-08T04:41:56.238Z,22.68
2023-07-08T04:42:56.250Z,22.91
2023-07-08T04:43:56.224Z,23.31
2023-07-08T04:44:56.208Z,23.58
2023-07-08T04:45:56.218Z,23.62
2023-07-08T04:46:56.237Z,23.48
2023-07-08T04:47:56.202Z,23.66
2023-07-08T04:48:56.181Z,23.81
2023-07-08T04:49:56.183Z,23.96
2023-07-08T04:50:56.200Z,24.26
2023-07-08T04:51:56.174Z,24.35
2023-07-08T04:52:56.184Z,24.66
2023-07-08T04:53:56.193Z,25.08
2023-07-08T04:54:56.748Z,25.23
2023-07-08T04:55:56.279Z,25.62
2023-07-08T04:56:56.129Z,25.95
2023-07-08T04:57:56.142Z,26.43
2023-07-08T04:58:56.115Z,26.75
2023-07-08T04:59:56.130Z,27.11
2023-07-08T05:00:56.126Z,26.92
2023-07-08T05:01:56.140Z,26.53
2023-07-08T05:02:56.113Z,25.77
2023-07-08T05:03:56.114Z,25.59
2023-07-08T05:04:56.077Z,25.25
2023-07-08T05:05:56.069Z,25.22
2023-07-08T05:06:56.087Z,25.59
2023-07-08T05:07:56.049Z,25.93
2023-07-08T05:08:56.048Z,26.18
2023-07-08T05:09:56.035Z,26.70
2023-07-08T05:10:56.779Z,27.30
2023-07-08T05:11:56.020Z,27.55
2023-07-08T05:12:56.046Z,27.60
2023-07-08T05:13:56.062Z,27.65
2023-07-08T05:14:56.011Z,27.92
2023-07-08T05:15:56.019Z,27.98
2023-07-08T05:16:55.988Z,27.74
2023-07-08T05:17:56.011Z,27.80
2023-07-08T05:18:55.961Z,28.05
2023-07-08T05:19:55.964Z,28.26
2023-07-08T05:20:55.982Z,28.39
2023-07-08T05:21:55.969Z,28.14
2023-07-08T05:22:55.961Z,27.71
2023-07-08T05:23:55.950Z,27.73
2023-07-08T05:24:55.920Z,27.71
2023-07-08T05:25:55.944Z,27.96
2023-07-08T05:26:55.922Z,28.17
2023-07-08T05:27:55.931Z,28.42
2023-07-08T05:28:55.898Z,28.86
2023-07-08T05:29:55.893Z,28.66
2023-07-08T05:30:55.880Z,28.91
2023-07-08T05:31:55.898Z,28.98
2023-07-08T05:32:55.958Z,29.42
2023-07-08T05:33:55.874Z,29.86
2023-07-08T05:34:55.875Z,30.35
2023-07-08T05:35:55.859Z,30.77
2023-07-08T05:36:55.847Z,31.14
2023-07-08T05:37:55.864Z,31.52
2023-07-08T05:38:55.829Z,31.78
2023-07-08T05:39:55.825Z,31.92
2023-07-08T05:40:56.856Z,32.03
2023-07-08T05:41:55.813Z,32.22
2023-07-08T05:42:55.810Z,32.22
2023-07-08T05:43:55.813Z,32.07
2023-07-08T05:44:55.796Z,32.34
2023-07-08T05:46:10.606Z,32.67
2023-07-08T05:46:57.914Z,32.92
2023-07-08T05:47:55.794Z,33.09
2023-07-08T05:48:55.764Z,33.30
2023-07-08T05:49:55.762Z,33.67
2023-07-08T05:50:55.766Z,33.90
2023-07-08T05:51:55.757Z,34.11
2023-07-08T05:52:55.745Z,34.23
2023-07-08T05:53:55.754Z,34.32
2023-07-08T05:54:55.721Z,34.47
2023-07-08T05:55:55.722Z,34.47
2023-07-08T05:56:55.724Z,34.43
2023-07-08T05:57:55.703Z,34.36
2023-07-08T05:58:55.764Z,34.40
2023-07-08T05:59:55.716Z,34.51
2023-07-08T06:00:55.767Z,34.66
2023-07-08T06:01:55.915Z,34.85
2023-07-08T06:02:55.716Z,34.85
2023-07-08T06:03:55.747Z,35.11
2023-07-08T06:04:55.661Z,35.29
2023-07-08T06:05:56.178Z,35.12
2023-07-08T06:06:55.662Z,35.14
2023-07-08T06:07:55.672Z,35.14
2023-07-08T06:08:55.652Z,34.89
2023-07-08T06:09:55.638Z,34.58
2023-07-08T06:10:57.257Z,34.60
2023-07-08T06:11:55.762Z,34.52
2023-07-08T06:12:55.624Z,33.98
2023-07-08T06:13:55.645Z,33.95
2023-07-08T06:14:55.605Z,33.87
2023-07-08T06:15:55.637Z,33.65
2023-07-08T06:16:55.646Z,33.84
2023-07-08T06:17:55.627Z,33.92
2023-07-08T06:18:55.565Z,33.27
2023-07-08T06:19:55.566Z,32.08
2023-07-08T06:20:55.563Z,31.22
2023-07-08T06:22:05.057Z,31.51
2023-07-08T06:22:56.573Z,32.09
2023-07-08T06:23:55.558Z,32.65
2023-07-08T06:24:55.558Z,33.07
2023-07-08T06:25:56.557Z,33.52
2023-07-08T06:27:57.205Z,34.10
2023-07-08T06:28:56.193Z,32.82
2023-07-08T06:29:55.511Z,32.55
2023-07-08T06:30:55.504Z,32.18
2023-07-08T06:31:55.619Z,31.73
2023-07-08T06:32:55.679Z,31.40
2023-07-08T06:33:55.477Z,31.12
2023-07-08T06:34:55.497Z,30.73
2023-07-08T06:35:55.486Z,30.43
2023-07-08T06:36:55.483Z,30.43
2023-07-08T06:37:55.458Z,30.54
2023-07-08T06:38:55.464Z,30.55
2023-07-08T06:39:55.439Z,30.78
2023-07-08T06:40:55.446Z,30.84
2023-07-08T06:41:55.431Z,30.80
2023-07-08T06:42:55.431Z,30.68
2023-07-08T06:43:55.427Z,31.02
2023-07-08T06:44:55.426Z,31.44
2023-07-08T06:45:55.427Z,31.40
2023-07-08T06:46:55.392Z,31.02
2023-07-08T06:47:55.438Z,31.18
2023-07-08T06:48:55.375Z,31.64
2023-07-08T06:49:57.430Z,32.18
2023-07-08T06:50:55.362Z,32.07
2023-07-08T06:51:55.372Z,31.89
2023-07-08T06:52:55.361Z,32.07
2023-07-08T06:53:55.349Z,32.09
2023-07-08T06:54:55.467Z,32.04
2023-07-08T06:55:55.346Z,31.76
2023-07-08T06:56:55.321Z,32.07
2023-07-08T06:57:55.341Z,32.12
2023-07-08T06:58:55.379Z,32.48
2023-07-08T06:59:55.311Z,32.37
2023-07-08T07:00:55.325Z,32.48
2023-07-08T07:01:55.348Z,32.58
2023-07-08T07:02:55.313Z,32.51
2023-07-08T07:03:55.379Z,32.07
2023-07-08T07:04:55.265Z,31.69
2023-07-08T07:05:55.293Z,31.43
2023-07-08T07:06:55.275Z,30.83
2023-07-08T07:07:55.254Z,30.47
2023-07-08T07:08:55.241Z,30.05
2023-07-08T07:09:55.222Z,29.79
2023-07-08T07:10:55.238Z,29.34
2023-07-08T07:11:55.217Z,29.01
2023-07-08T07:12:55.217Z,28.82
2023-07-08T07:13:55.270Z,28.72
2023-07-08T07:14:55.224Z,28.74
2023-07-08T07:15:55.314Z,28.82
2023-07-08T07:17:07.167Z,28.51
2023-07-08T07:17:57.172Z,28.10
2023-07-08T07:18:55.176Z,27.71
2023-07-08T07:19:55.210Z,27.35
2023-07-08T07:20:55.801Z,27.05
2023-07-08T07:21:55.157Z,26.78
2023-07-08T07:22:55.165Z,26.70
2023-07-08T07:23:55.128Z,26.80
2023-07-08T07:24:55.105Z,26.88
2023-07-08T07:25:55.115Z,26.80
2023-07-08T07:26:55.138Z,26.93
2023-07-08T07:27:55.137Z,27.00
2023-07-08T07:28:55.732Z,27.14
2023-07-08T07:29:55.084Z,27.63
2023-07-08T07:30:55.119Z,27.87
2023-07-08T07:31:55.110Z,28.02
2023-07-08T07:32:55.105Z,28.22
2023-07-08T07:33:55.044Z,28.48
2023-07-08T07:34:55.047Z,28.70
2023-07-08T07:35:55.099Z,29.01
2023-07-08T07:36:57.280Z,28.66
2023-07-08T07:37:55.070Z,28.54
2023-07-08T07:38:55.012Z,28.29
2023-07-08T07:39:55.013Z,28.29
2023-07-08T07:40:55.016Z,28.72
2023-07-08T07:41:54.992Z,29.24
2023-07-08T07:42:55.009Z,29.71
2023-07-08T07:43:54.979Z,30.02
2023-07-08T07:44:54.994Z,30.32
2023-07-08T07:45:54.978Z,30.57
2023-07-08T07:46:55.030Z,30.55
2023-07-08T07:47:54.989Z,30.66
2023-07-08T07:48:55.747Z,30.88
2023-07-08T07:49:54.986Z,31.00
2023-07-08T07:50:54.966Z,31.22
2023-07-08T07:51:54.986Z,31.27
2023-07-08T07:52:54.924Z,31.40
2023-07-08T07:53:54.896Z,31.18
2023-07-08T07:54:54.935Z,31.09
2023-07-08T07:55:54.915Z,30.75
2023-07-08T07:56:54.894Z,30.51
2023-07-08T07:57:54.886Z,30.16
2023-07-08T07:58:54.868Z,29.78
2023-07-08T07:59:54.864Z,29.72
2023-07-08T08:00:54.865Z,29.73
2023-07-08T08:01:54.861Z,29.88
2023-07-08T08:02:54.881Z,30.27
2023-07-08T08:03:54.942Z,30.68
2023-07-08T08:04:55.354Z,30.91
2023-07-08T08:05:54.814Z,31.15
2023-07-08T08:06:54.819Z,31.39
2023-07-08T08:07:54.857Z,31.47
2023-07-08T08:08:54.793Z,31.33
2023-07-08T08:09:54.778Z,31.07
2023-07-08T08:10:54.805Z,30.91
2023-07-08T08:11:54.791Z,30.92
2023-07-08T08:12:54.774Z,30.91
2023-07-08T08:13:54.845Z,31.06
2023-07-08T08:14:54.912Z,31.39
2023-07-08T08:15:55.335Z,31.74
2023-07-08T08:16:54.839Z,31.96
2023-07-08T08:17:55.420Z,31.97
2023-07-08T08:18:54.715Z,32.12
2023-07-08T08:19:54.779Z,32.41
2023-07-08T08:20:54.701Z,32.77
2023-07-08T08:21:54.736Z,32.90
2023-07-08T08:22:54.692Z,32.89
2023-07-08T08:23:54.705Z,33.11
2023-07-08T08:24:54.693Z,33.40
2023-07-08T08:25:54.684Z,33.65
2023-07-08T08:26:54.666Z,33.99
2023-07-08T08:27:54.671Z,34.06
2023-07-08T08:28:54.665Z,33.69
2023-07-08T08:29:54.637Z,33.77
2023-07-08T08:30:54.643Z,33.98
2023-07-08T08:31:54.609Z,34.21
2023-07-08T08:32:54.660Z,34.36
2023-07-08T08:33:54.640Z,34.47
2023-07-08T08:34:54.619Z,34.64
2023-07-08T08:35:54.584Z,34.77
2023-07-08T08:36:54.589Z,34.92
2023-07-08T08:37:54.891Z,35.11
2023-07-08T08:38:54.580Z,35.14
2023-07-08T08:39:54.559Z,35.04
2023-07-08T08:40:54.565Z,35.04
2023-07-08T08:41:54.576Z,35.04
2023-07-08T08:42:54.578Z,34.95
2023-07-08T08:43:55.617Z,35.04
2023-07-08T08:44:55.558Z,35.04
2023-07-08T08:45:54.538Z,35.10
2023-07-08T08:46:54.721Z,35.08
2023-07-08T08:47:54.527Z,35.07
2023-07-08T08:48:54.533Z,35.17
2023-07-08T08:49:55.270Z,35.11
2023-07-08T08:50:54.477Z,35.27
2023-07-08T08:51:54.476Z,35.00
2023-07-08T08:52:54.468Z,34.86
2023-07-08T08:53:54.456Z,34.51
2023-07-08T08:54:54.465Z,34.10
2023-07-08T08:55:54.455Z,33.59
2023-07-08T08:56:55.398Z,33.09
2023-07-08T08:57:54.446Z,32.63
2023-07-08T08:58:54.567Z,32.36
2023-07-08T08:59:54.410Z,32.46
2023-07-08T09:00:54.416Z,32.64
2023-07-08T09:01:54.418Z,32.73
2023-07-08T09:02:54.515Z,32.77
2023-07-08T09:03:54.451Z,32.63
2023-07-08T09:04:55.280Z,32.56
2023-07-08T09:05:54.390Z,32.64
2023-07-08T09:06:54.407Z,32.64
2023-07-08T09:07:54.348Z,32.53
2023-07-08T09:08:55.368Z,32.48
2023-07-08T09:09:54.353Z,32.21
2023-07-08T09:10:54.349Z,32.15
2023-07-08T09:11:54.349Z,32.09
2023-07-08T09:12:54.332Z,31.76
2023-07-08T09:13:54.421Z,31.25
2023-07-08T09:14:54.320Z,31.06
2023-07-08T09:15:54.348Z,31.03
2023-07-08T09:16:54.412Z,30.88
2023-07-08T09:17:54.326Z,30.99
2023-07-08T09:18:54.313Z,31.02
2023-07-08T09:19:54.279Z,31.12
2023-07-08T09:20:54.250Z,31.12
2023-07-08T09:21:54.322Z,31.20
2023-07-08T09:22:54.354Z,31.34
2023-07-08T09:23:54.258Z,31.42
2023-07-08T09:24:54.226Z,31.42
2023-07-08T09:25:54.835Z,31.54
2023-07-08T09:26:54.862Z,31.52
2023-07-08T09:27:54.219Z,31.54
2023-07-08T09:28:54.200Z,31.62
2023-07-08T09:29:54.215Z,31.64
2023-07-08T09:30:54.202Z,31.71
2023-07-08T09:31:54.274Z,31.81
2023-07-08T09:32:54.231Z,31.47
2023-07-08T09:33:54.173Z,31.12
2023-07-08T09:34:54.159Z,31.21
2023-07-08T09:35:54.143Z,31.36
2023-07-08T09:36:54.159Z,31.22
2023-07-08T09:37:54.204Z,31.33
2023-07-08T09:38:54.133Z,31.46
2023-07-08T09:39:54.128Z,31.58
2023-07-08T09:40:54.098Z,31.56
2023-07-08T09:41:54.109Z,31.70
2023-07-08T09:42:54.126Z,31.84
2023-07-08T09:43:54.114Z,31.81
2023-07-08T09:44:54.105Z,31.97
2023-07-08T09:45:54.079Z,32.16
2023-07-08T09:46:54.197Z,32.21
2023-07-08T09:47:54.165Z,32.22
2023-07-08T09:48:54.051Z,32.15
2023-07-08T09:49:54.114Z,32.11
2023-07-08T09:50:54.046Z,32.09
2023-07-08T09:51:54.043Z,31.87
2023-07-08T09:52:54.984Z,31.84
2023-07-08T09:53:54.001Z,31.64
2023-07-08T09:54:54.049Z,31.70
2023-07-08T09:55:53.998Z,31.46
2023-07-08T09:56:53.989Z,31.42
2023-07-08T09:57:53.979Z,31.21
2023-07-08T09:58:53.973Z,31.03
2023-07-08T09:59:53.968Z,31.00
2023-07-08T10:00:54.798Z,30.83
2023-07-08T10:01:54.037Z,30.62
2023-07-08T10:02:53.973Z,30.48
2023-07-08T10:03:54.812Z,30.31
2023-07-08T10:04:54.053Z,30.34
2023-07-08T10:05:53.928Z,30.44
2023-07-08T10:06:53.924Z,30.43
2023-07-08T10:07:53.916Z,30.40
2023-07-08T10:08:54.035Z,30.31
2023-07-08T10:09:53.895Z,30.31
2023-07-08T10:10:53.902Z,30.30
2023-07-08T10:11:53.916Z,30.27
2023-07-08T10:12:53.874Z,30.47
2023-07-08T10:14:11.688Z,30.35
2023-07-08T10:14:55.861Z,30.47
2023-07-08T10:15:53.919Z,30.48
2023-07-08T10:16:53.896Z,30.46
2023-07-08T10:17:53.900Z,30.50
2023-07-08T10:18:53.828Z,30.47
2023-07-08T10:19:53.840Z,30.40
2023-07-08T10:20:53.818Z,30.44
2023-07-08T10:21:53.816Z,30.43
2023-07-08T10:22:53.792Z,30.31
2023-07-08T10:23:53.781Z,30.34
2023-07-08T10:24:53.794Z,30.28
2023-07-08T10:25:53.777Z,30.27
2023-07-08T10:26:53.782Z,30.40
2023-07-08T10:27:53.757Z,30.50
2023-07-08T10:28:53.796Z,30.70
2023-07-08T10:29:53.809Z,30.72
2023-07-08T10:30:53.739Z,30.92
2023-07-08T10:31:53.828Z,31.03
2023-07-08T10:32:53.790Z,31.00
2023-07-08T10:33:53.745Z,31.03
2023-07-08T10:34:53.695Z,31.15
2023-07-08T10:35:53.696Z,31.14
2023-07-08T10:36:53.733Z,31.17
2023-07-08T10:37:53.690Z,31.21
2023-07-08T10:38:53.697Z,31.24
2023-07-08T10:39:53.681Z,31.22
2023-07-08T10:40:53.661Z,31.28
2023-07-08T10:41:53.698Z,31.40
2023-07-08T10:42:53.659Z,31.40
2023-07-08T10:43:53.658Z,31.51
2023-07-08T10:44:53.625Z,31.52
2023-07-08T10:45:53.645Z,31.47
2023-07-08T10:46:53.623Z,31.49
2023-07-08T10:47:53.657Z,31.46
2023-07-08T10:48:53.619Z,31.61
2023-07-08T10:49:53.583Z,31.69
2023-07-08T10:50:53.608Z,31.76
2023-07-08T10:51:53.587Z,31.61
2023-07-08T10:52:53.599Z,31.74
2023-07-08T10:53:55.826Z,31.69
2023-07-08T10:54:53.620Z,31.81
2023-07-08T10:55:53.584Z,31.85
2023-07-08T10:56:53.539Z,31.90
2023-07-08T10:57:53.547Z,31.92
2023-07-08T10:58:53.546Z,32.00
2023-07-08T10:59:53.510Z,31.89
2023-07-08T11:00:54.440Z,31.76
2023-07-08T11:01:53.646Z,31.66
2023-07-08T11:02:53.539Z,31.74
2023-07-08T11:03:53.559Z,31.70
2023-07-08T11:04:53.496Z,31.77
2023-07-08T11:05:53.472Z,31.80
2023-07-08T11:06:53.465Z,31.93
2023-07-08T11:07:53.484Z,31.92
2023-07-08T11:08:53.499Z,32.07
2023-07-08T11:09:53.451Z,32.04
2023-07-08T11:11:02.897Z,32.08
2023-07-08T11:11:55.446Z,32.04
2023-07-08T11:12:54.419Z,31.97
2023-07-08T11:13:53.444Z,32.01
2023-07-08T11:14:53.398Z,31.93
2023-07-08T11:15:53.448Z,31.93
2023-07-08T11:16:53.431Z,31.99
2023-07-08T11:17:53.457Z,32.07
2023-07-08T11:18:54.412Z,32.00
2023-07-08T11:19:53.374Z,31.76
2023-07-08T11:20:54.373Z,31.65
2023-07-08T11:21:53.359Z,31.39
2023-07-08T11:22:53.365Z,31.34
2023-07-08T11:23:53.332Z,31.25
2023-07-08T11:24:53.363Z,31.43
2023-07-08T11:25:53.314Z,31.56
2023-07-08T11:26:53.328Z,31.81
2023-07-08T11:27:53.342Z,32.00
2023-07-08T11:28:53.324Z,32.09
2023-07-08T11:29:53.303Z,32.12
2023-07-08T11:30:53.323Z,32.29
2023-07-08T11:31:53.433Z,32.36
2023-07-08T11:32:53.387Z,32.31
2023-07-08T11:33:53.326Z,32.12
2023-07-08T11:34:53.316Z,32.11
2023-07-08T11:35:53.331Z,31.90
2023-07-08T11:36:53.342Z,32.00
2023-07-08T11:37:53.241Z,32.12
2023-07-08T11:38:53.227Z,32.16
2023-07-08T11:39:53.242Z,32.16
2023-07-08T11:40:53.215Z,32.23
2023-07-08T11:41:53.250Z,32.37
2023-07-08T11:42:59.629Z,32.41
2023-07-08T11:43:55.215Z,32.31
2023-07-08T11:44:53.233Z,32.21
2023-07-08T11:45:53.201Z,32.30
2023-07-08T11:46:53.187Z,32.23
2023-07-08T11:47:53.303Z,32.16
2023-07-08T11:48:53.170Z,32.16
2023-07-08T11:49:53.166Z,32.07
2023-07-08T11:50:53.191Z,32.01
2023-07-08T11:51:53.158Z,32.14
2023-07-08T11:52:53.120Z,32.12
2023-07-08T11:53:53.128Z,32.11
2023-07-08T11:54:53.127Z,32.18
2023-07-08T11:55:53.128Z,32.37
2023-07-08T11:56:53.129Z,32.37
2023-07-08T11:57:53.124Z,32.45
2023-07-08T11:58:53.125Z,32.34
2023-07-08T11:59:53.097Z,32.46
2023-07-08T12:00:55.095Z,32.34
2023-07-08T12:01:54.089Z,32.41
2023-07-08T12:02:53.155Z,32.45
2023-07-08T12:03:53.168Z,32.36
2023-07-08T12:04:53.078Z,32.33
2023-07-08T12:05:53.076Z,32.22
2023-07-08T12:06:53.056Z,32.16
2023-07-08T12:07:53.060Z,32.14
2023-07-08T12:08:57.235Z,32.12
2023-07-08T12:09:55.957Z,32.21
2023-07-08T12:10:54.870Z,32.15
2023-07-08T12:11:52.996Z,32.14
2023-07-08T12:12:53.006Z,31.99
2023-07-08T12:13:53.030Z,31.76
2023-07-08T12:14:53.000Z,31.76
2023-07-08T12:15:53.019Z,31.64
2023-07-08T12:16:53.048Z,31.64
2023-07-08T12:17:53.063Z,31.76
2023-07-08T12:18:52.970Z,31.80
2023-07-08T12:19:52.961Z,31.80
2023-07-08T12:20:52.938Z,31.97
2023-07-08T12:21:52.936Z,32.01
2023-07-08T12:22:52.915Z,32.11
2023-07-08T12:23:52.895Z,32.18
2023-07-08T12:24:52.910Z,32.26
2023-07-08T12:25:52.941Z,32.37
2023-07-08T12:26:52.901Z,32.45
2023-07-08T12:27:52.865Z,32.65
2023-07-08T12:28:52.910Z,32.60
2023-07-08T12:29:52.893Z,32.59
2023-07-08T12:30:52.907Z,32.53
2023-07-08T12:31:53.370Z,32.74
2023-07-08T12:32:53.923Z,32.90
2023-07-08T12:33:53.393Z,32.93
2023-07-08T12:34:53.456Z,32.93
2023-07-08T12:35:52.842Z,33.11
2023-07-08T12:36:52.831Z,33.20
2023-07-08T12:37:52.833Z,33.11
2023-07-08T12:38:52.855Z,33.02
2023-07-08T12:39:52.787Z,33.09
2023-07-08T12:40:52.776Z,33.05
2023-07-08T12:41:52.781Z,33.24
2023-07-08T12:42:52.757Z,33.28
2023-07-08T12:43:52.773Z,33.53
2023-07-08T12:44:52.747Z,33.68
2023-07-08T12:45:53.456Z,33.64
2023-07-08T12:46:52.769Z,33.84
2023-07-08T12:47:54.375Z,33.94
2023-07-08T12:48:52.745Z,33.86
2023-07-08T12:49:52.731Z,33.81
2023-07-08T12:50:52.737Z,33.76
2023-07-08T12:51:52.707Z,33.62
2023-07-08T12:52:52.678Z,33.52
2023-07-08T12:53:52.674Z,33.49
2023-07-08T12:54:52.683Z,33.57